Time;durP1;ratioP1;P1;durP2;ratioP2;P2;SDS_P1;SDS_P2;PMS_P1;PMS_P2;Temp;Humidity;BMP_temperature;BMP_pressure;BME280_temperature;BME280_humidity;BME280_pressure;Samples;Min_cycle;Max_cycle;Signal;HPM_P1;HPM_P2
2022/08/25 00:01:23;;;;;;;11.00;7.37;;;18.10;94.40;;;;;;5113964;28;20195;-59
2022/08/25 00:03:48;;;;;;;10.20;6.50;;;18.10;94.40;;;;;;5116881;28;20272;-59
2022/08/25 00:06:15;;;;;;;9.20;6.83;;;18.10;94.40;;;;;;5108073;28;20213;-59
2022/08/25 00:08:41;;;;;;;8.37;6.93;;;18.10;94.40;;;;;;5102754;28;20184;-59
2022/08/25 00:11:10;;;;;;;12.80;7.83;;;18.10;94.40;;;;;;5059262;28;20279;-59
2022/08/25 00:13:42;;;;;;;8.10;7.10;;;18.10;94.50;;;;;;5084708;28;20181;-59
2022/08/25 00:16:10;;;;;;;8.93;7.77;;;18.10;94.50;;;;;;5066882;28;20217;-59
2022/08/25 00:18:36;;;;;;;8.00;7.20;;;18.10;94.50;;;;;;5084817;28;20219;-59
2022/08/25 00:21:03;;;;;;;10.23;7.50;;;18.10;94.60;;;;;;5091870;28;20239;-59
2022/08/25 00:23:29;;;;;;;8.97;7.70;;;18.10;94.40;;;;;;5094915;28;20199;-59
2022/08/25 00:25:55;;;;;;;10.03;7.93;;;18.20;94.60;;;;;;5082434;28;20237;-59
2022/08/25 00:28:21;;;;;;;9.43;7.50;;;18.10;94.50;;;;;;5082454;28;20200;-59
2022/08/25 00:30:48;;;;;;;8.27;7.47;;;18.10;94.50;;;;;;5091346;28;20185;-59
2022/08/25 00:33:15;;;;;;;8.30;7.40;;;18.10;94.40;;;;;;5079869;28;20201;-59
2022/08/25 00:35:41;;;;;;;13.13;8.00;;;18.10;94.40;;;;;;5099702;28;20215;-59
2022/08/25 00:38:09;;;;;;;9.97;7.20;;;18.10;94.40;;;;;;5118540;27;20199;-59
2022/08/25 00:40:35;;;;;;;10.03;8.20;;;18.20;94.70;;;;;;5082938;28;20193;-59
2022/08/25 00:43:02;;;;;;;11.13;7.63;;;18.10;94.60;;;;;;5088576;28;20214;-59
2022/08/25 00:45:28;;;;;;;9.47;7.47;;;18.20;94.70;;;;;;5111021;27;20185;-59
2022/08/25 00:47:53;;;;;;;9.63;6.67;;;18.20;94.60;;;;;;5078581;28;20258;-59
2022/08/25 00:50:21;;;;;;;10.63;7.17;;;18.10;94.50;;;;;;5069895;28;20232;-59
2022/08/25 00:52:51;;;;;;;8.77;7.87;;;18.10;94.50;;;;;;5079853;28;20207;-59
2022/08/25 00:55:25;;;;;;;8.83;7.37;;;18.10;94.50;;;;;;5094363;28;20173;-59
2022/08/25 00:58:06;;;;;;;10.67;7.50;;;18.10;94.50;;;;;;5081293;28;20189;-59
2022/08/25 01:00:38;;;;;;;8.40;7.40;;;18.10;94.50;;;;;;5108699;28;20185;-59
2022/08/25 01:03:04;;;;;;;10.63;7.50;;;18.10;94.50;;;;;;5078439;28;20280;-59
2022/08/25 01:05:31;;;;;;;9.50;7.33;;;18.10;94.50;;;;;;5097868;28;20191;-59
2022/08/25 01:08:00;;;;;;;9.30;6.93;;;18.10;94.50;;;;;;5091138;28;20211;-59
2022/08/25 01:10:27;;;;;;;10.77;7.90;;;18.10;94.50;;;;;;5116134;28;20180;-59
2022/08/25 01:12:59;;;;;;;11.67;7.33;;;18.10;94.50;;;;;;5114968;28;20248;-59
2022/08/25 01:15:26;;;;;;;8.70;7.13;;;18.10;94.60;;;;;;5098174;28;20188;-59
2022/08/25 01:17:55;;;;;;;9.70;7.03;;;18.00;94.50;;;;;;5096803;28;20265;-59
2022/08/25 01:20:23;;;;;;;8.63;7.00;;;18.00;94.50;;;;;;5082259;28;20193;-59
2022/08/25 01:22:49;;;;;;;10.07;7.30;;;18.00;94.50;;;;;;5099242;28;20188;-59
2022/08/25 01:25:37;;;;;;;8.97;7.30;;;18.00;94.50;;;;;;5098959;28;20181;-59
2022/08/25 01:28:04;;;;;;;8.23;6.57;;;18.00;94.50;;;;;;5098634;28;20292;-59
2022/08/25 01:30:30;;;;;;;7.57;6.67;;;18.00;94.60;;;;;;5094690;28;20268;-59
2022/08/25 01:32:56;;;;;;;11.10;7.37;;;18.10;94.40;;;;;;5099242;27;20192;-59
2022/08/25 01:35:22;;;;;;;10.63;8.10;;;18.00;94.40;;;;;;5117148;27;20238;-59
2022/08/25 01:37:48;;;;;;;9.13;7.17;;;18.10;94.40;;;;;;5098619;28;20192;-59
2022/08/25 01:40:14;;;;;;;9.50;6.80;;;18.00;94.30;;;;;;5098376;28;20193;-59
2022/08/25 01:42:56;;;;;;;8.43;7.13;;;18.00;94.30;;;;;;5079493;28;20193;-59
2022/08/25 01:45:22;;;;;;;9.23;7.63;;;18.00;94.30;;;;;;5099230;28;20194;-59
2022/08/25 01:47:48;;;;;;;10.80;7.07;;;18.00;94.20;;;;;;5083765;28;20207;-59
2022/08/25 01:50:13;;;;;;;12.00;7.47;;;18.00;94.20;;;;;;5081724;28;20203;-59
2022/08/25 01:52:42;;;;;;;7.87;7.07;;;17.90;94.10;;;;;;5086463;28;20258;-59
2022/08/25 01:55:07;;;;;;;8.37;6.73;;;17.90;94.10;;;;;;5092966;28;20189;-59
2022/08/25 01:57:33;;;;;;;11.47;8.00;;;17.90;94.30;;;;;;5098166;28;20201;-59
2022/08/25 02:00:00;;;;;;;12.83;7.60;;;17.90;94.20;;;;;;5064132;28;20192;-59
2022/08/25 02:02:26;;;;;;;10.03;7.33;;;17.90;94.20;;;;;;5060819;28;20202;-59
2022/08/25 02:04:53;;;;;;;8.93;7.47;;;17.80;94.10;;;;;;5108271;28;20279;-59
2022/08/25 02:07:18;;;;;;;8.67;7.27;;;17.80;94.00;;;;;;5070869;28;20209;-59
2022/08/25 02:09:44;;;;;;;9.97;7.77;;;17.80;94.00;;;;;;5082172;28;20188;-59
2022/08/25 02:12:10;;;;;;;9.07;7.67;;;17.80;94.30;;;;;;5081216;28;20193;-59
2022/08/25 02:14:36;;;;;;;9.20;8.20;;;17.80;94.20;;;;;;5052972;28;20222;-59
2022/08/25 02:17:04;;;;;;;12.83;7.97;;;17.80;94.10;;;;;;5062618;28;20294;-59
2022/08/25 02:19:30;;;;;;;8.33;6.97;;;17.80;94.10;;;;;;5066231;28;20220;-59
2022/08/25 02:21:56;;;;;;;10.40;7.63;;;17.80;94.00;;;;;;5084534;28;20193;-59
2022/08/25 02:24:22;;;;;;;8.70;7.40;;;17.80;94.00;;;;;;5083861;28;20323;-59
2022/08/25 02:26:49;;;;;;;10.47;7.80;;;17.80;94.10;;;;;;5079270;28;20335;-59
2022/08/25 02:29:15;;;;;;;9.13;7.20;;;17.70;94.20;;;;;;5097328;28;20176;-59
2022/08/25 02:31:42;;;;;;;8.00;7.20;;;17.80;94.10;;;;;;5093451;28;20182;-59
2022/08/25 02:34:08;;;;;;;10.03;8.30;;;17.70;94.10;;;;;;5094327;28;20263;-59
2022/08/25 02:36:34;;;;;;;9.87;8.00;;;17.70;94.10;;;;;;5075346;28;20212;-59
2022/08/25 02:39:02;;;;;;;11.53;7.67;;;17.70;94.10;;;;;;5055260;28;20196;-59
2022/08/25 02:41:28;;;;;;;10.00;7.50;;;17.70;94.20;;;;;;5087122;28;20196;-59
2022/08/25 02:43:54;;;;;;;8.13;7.23;;;17.70;94.30;;;;;;5066326;28;20193;-59
2022/08/25 02:46:21;;;;;;;11.63;8.03;;;17.70;94.40;;;;;;5075734;28;20212;-59
2022/08/25 02:48:47;;;;;;;8.53;7.63;;;17.70;94.30;;;;;;5115059;28;20184;-59
2022/08/25 02:51:14;;;;;;;9.53;8.30;;;17.70;94.40;;;;;;5077382;28;20216;-59
2022/08/25 02:53:41;;;;;;;8.13;7.33;;;17.70;94.40;;;;;;5094475;28;20191;-59
2022/08/25 02:56:10;;;;;;;14.03;7.40;;;17.70;94.20;;;;;;5073724;28;20192;-59
2022/08/25 02:58:37;;;;;;;8.97;8.07;;;17.80;94.40;;;;;;5102443;28;20254;-59
2022/08/25 03:01:04;;;;;;;9.47;7.77;;;17.80;94.40;;;;;;5110150;28;20184;-59
2022/08/25 03:03:29;;;;;;;9.20;7.17;;;17.70;94.30;;;;;;5093974;28;20219;-59
2022/08/25 03:05:56;;;;;;;9.30;7.60;;;17.70;94.20;;;;;;5060241;28;20215;-59
2022/08/25 03:08:22;;;;;;;9.17;8.10;;;17.80;94.30;;;;;;5079200;28;20218;-59
2022/08/25 03:10:48;;;;;;;9.70;7.43;;;17.70;94.30;;;;;;5074678;28;20291;-59
2022/08/25 03:13:15;;;;;;;9.50;8.13;;;17.70;94.30;;;;;;5094038;28;20200;-59
2022/08/25 03:15:41;;;;;;;11.23;7.37;;;17.70;94.30;;;;;;5080131;28;20196;-59
2022/08/25 03:18:07;;;;;;;9.03;7.57;;;17.70;94.30;;;;;;5080421;28;20187;-59
2022/08/25 03:20:34;;;;;;;9.20;8.17;;;17.70;94.30;;;;;;5079755;28;20188;-59
2022/08/25 03:23:01;;;;;;;9.60;7.73;;;17.70;94.40;;;;;;5092091;28;20272;-59
2022/08/25 03:28:11;;;;;;;9.03;8.10;;;17.70;94.40;;;;;;5080970;27;20284;-59
2022/08/25 03:30:37;;;;;;;8.23;7.43;;;17.70;94.40;;;;;;5105437;28;20279;-59
2022/08/25 03:33:03;;;;;;;8.90;7.93;;;17.70;94.40;;;;;;5096623;28;20180;-59
2022/08/25 03:35:29;;;;;;;10.43;8.20;;;17.70;94.30;;;;;;5091216;28;20189;-59
2022/08/25 03:37:56;;;;;;;10.67;8.30;;;17.70;94.30;;;;;;5106512;28;20201;-59
2022/08/25 03:40:22;;;;;;;12.07;7.67;;;17.70;94.30;;;;;;5080163;28;20185;-59
2022/08/25 03:42:48;;;;;;;9.60;7.17;;;17.70;94.30;;;;;;5082803;28;20196;-59
2022/08/25 03:45:15;;;;;;;8.27;7.47;;;17.70;94.20;;;;;;5097568;28;20229;-59
2022/08/25 03:47:44;;;;;;;11.17;8.17;;;17.70;94.20;;;;;;5076833;28;20265;-59
2022/08/25 03:50:11;;;;;;;8.23;7.00;;;17.70;94.30;;;;;;5093099;28;20186;-59
2022/08/25 03:52:37;;;;;;;11.57;7.93;;;17.70;94.20;;;;;;5112525;28;20176;-59
2022/08/25 03:55:06;;;;;;;15.27;8.03;;;17.70;94.20;;;;;;5097126;28;20188;-59
2022/08/25 03:57:32;;;;;;;11.07;8.70;;;17.70;94.20;;;;;;5093656;28;20189;-59
2022/08/25 03:59:58;;;;;;;11.93;8.07;;;17.70;94.30;;;;;;5099776;28;20288;-59
2022/08/25 04:02:24;;;;;;;11.30;8.13;;;17.60;94.20;;;;;;5114144;28;20199;-59
2022/08/25 04:04:49;;;;;;;10.07;8.17;;;17.70;94.20;;;;;;5072175;28;20193;-59
2022/08/25 04:07:16;;;;;;;10.17;8.23;;;17.70;94.10;;;;;;5050504;28;20204;-59
2022/08/25 04:09:41;;;;;;;8.13;7.10;;;17.60;94.10;;;;;;5109188;28;20188;-59
2022/08/25 04:12:07;;;;;;;8.57;7.43;;;17.60;94.20;;;;;;5114333;28;20181;-59
2022/08/25 04:14:33;;;;;;;10.63;7.80;;;17.60;94.10;;;;;;5124418;27;20188;-59
2022/08/25 04:16:59;;;;;;;10.60;8.10;;;17.60;94.10;;;;;;5087162;28;20200;-59
2022/08/25 04:19:24;;;;;;;12.00;8.20;;;17.60;94.10;;;;;;5065287;28;20196;-59
2022/08/25 04:21:50;;;;;;;9.30;8.30;;;17.60;94.10;;;;;;5083417;28;20233;-59
2022/08/25 04:24:16;;;;;;;13.60;8.40;;;17.60;94.30;;;;;;5101000;28;20192;-59
2022/08/25 04:26:47;;;;;;;10.10;8.20;;;17.60;94.20;;;;;;5060237;28;20290;-59
2022/08/25 04:29:15;;;;;;;10.47;7.60;;;17.60;94.20;;;;;;5071890;28;20189;-59
2022/08/25 04:31:45;;;;;;;10.03;8.17;;;17.60;94.30;;;;;;5087952;28;20180;-59
2022/08/25 04:34:11;;;;;;;9.73;7.53;;;17.60;94.20;;;;;;5084963;27;20187;-59
2022/08/25 04:36:38;;;;;;;11.77;8.10;;;17.60;94.20;;;;;;5089431;28;20184;-59
2022/08/25 04:39:04;;;;;;;11.33;8.17;;;17.60;94.20;;;;;;5099172;28;20189;-59
2022/08/25 04:41:30;;;;;;;9.87;8.07;;;17.70;94.20;;;;;;5094815;27;20194;-59
2022/08/25 04:43:58;;;;;;;8.33;7.47;;;17.60;94.20;;;;;;5081694;28;20196;-59
2022/08/25 04:46:26;;;;;;;9.77;7.83;;;17.70;94.30;;;;;;5096832;28;20205;-59
2022/08/25 04:48:54;;;;;;;10.33;7.77;;;17.70;94.20;;;;;;5113820;28;20189;-59
2022/08/25 04:51:24;;;;;;;8.67;7.57;;;17.70;94.20;;;;;;5099974;28;20248;-59
2022/08/25 04:53:51;;;;;;;11.17;8.50;;;17.70;94.20;;;;;;5075462;28;20273;-59
2022/08/25 04:56:19;;;;;;;10.30;8.47;;;17.70;94.20;;;;;;5110024;28;20191;-59
2022/08/25 04:58:45;;;;;;;11.80;9.10;;;17.70;94.20;;;;;;5089937;28;20190;-59
2022/08/25 05:01:21;;;;;;;9.07;8.17;;;17.70;94.20;;;;;;5059592;28;20272;-59
2022/08/25 05:03:51;;;;;;;11.67;8.27;;;17.70;94.30;;;;;;5101371;28;20235;-59
2022/08/25 05:06:17;;;;;;;9.30;7.80;;;17.70;94.30;;;;;;5099302;28;20232;-59
2022/08/25 05:08:43;;;;;;;9.23;8.13;;;17.80;94.40;;;;;;5088906;28;20181;-59
2022/08/25 05:11:16;;;;;;;12.47;8.50;;;17.80;94.40;;;;;;5084338;28;20292;-59
2022/08/25 05:13:43;;;;;;;9.00;8.07;;;17.80;94.40;;;;;;5113928;27;20176;-59
2022/08/25 05:16:09;;;;;;;9.40;8.43;;;17.80;94.40;;;;;;5105078;28;20189;-59
2022/08/25 05:18:35;;;;;;;10.07;7.93;;;17.80;94.40;;;;;;5057223;28;20211;-60
2022/08/25 05:21:04;;;;;;;12.00;9.13;;;17.80;94.40;;;;;;5081543;28;20188;-60
2022/08/25 05:23:29;;;;;;;10.30;7.90;;;17.80;94.40;;;;;;5097107;28;20233;-60
2022/08/25 05:26:00;;;;;;;12.83;9.67;;;17.90;94.50;;;;;;5095558;28;20228;-60
2022/08/25 05:28:26;;;;;;;9.37;8.20;;;17.90;94.50;;;;;;5079002;28;20212;-60
2022/08/25 05:30:58;;;;;;;9.47;8.47;;;17.90;94.50;;;;;;5069965;28;20189;-60
2022/08/25 05:33:24;;;;;;;10.87;9.07;;;17.90;94.60;;;;;;5100811;28;20192;-60
2022/08/25 05:35:50;;;;;;;9.30;8.33;;;18.00;94.70;;;;;;5108085;28;20196;-60
2022/08/25 05:38:16;;;;;;;12.90;9.33;;;18.00;94.60;;;;;;5069172;28;20198;-61
2022/08/25 05:40:42;;;;;;;10.10;8.67;;;18.10;94.70;;;;;;5088470;28;20197;-60
2022/08/25 05:43:08;;;;;;;10.07;8.03;;;18.10;94.70;;;;;;5099445;28;20203;-60
2022/08/25 05:45:34;;;;;;;10.30;8.53;;;18.10;94.70;;;;;;5097997;28;20188;-61
2022/08/25 05:48:00;;;;;;;10.20;8.70;;;18.20;94.70;;;;;;5076952;28;20249;-60
2022/08/25 05:50:26;;;;;;;11.10;8.77;;;18.20;94.80;;;;;;5107767;28;20211;-61
2022/08/25 05:52:52;;;;;;;10.13;9.13;;;18.20;94.80;;;;;;5111960;28;20288;-60
2022/08/25 05:55:17;;;;;;;11.50;8.67;;;18.30;94.80;;;;;;5079675;28;20193;-61
2022/08/25 05:57:43;;;;;;;9.87;8.50;;;18.30;94.80;;;;;;5083093;28;20227;-61
2022/08/25 06:00:09;;;;;;;10.03;8.73;;;18.30;94.70;;;;;;5080103;28;20188;-60
2022/08/25 06:02:42;;;;;;;10.03;8.93;;;18.30;94.70;;;;;;5064643;28;20194;-60
2022/08/25 06:05:10;;;;;;;12.40;8.57;;;18.40;94.80;;;;;;5085689;28;20200;-60
2022/08/25 06:07:36;;;;;;;9.80;8.17;;;18.40;94.80;;;;;;5070151;28;20221;-61
2022/08/25 06:10:05;;;;;;;9.50;7.70;;;18.50;94.80;;;;;;5100121;28;20200;-60
2022/08/25 06:12:34;;;;;;;12.50;9.60;;;18.50;94.80;;;;;;5114305;28;20186;-60
2022/08/25 06:15:01;;;;;;;13.47;9.50;;;18.60;94.80;;;;;;5103123;27;20215;-60
2022/08/25 06:17:26;;;;;;;11.93;9.03;;;18.50;94.70;;;;;;5060463;28;20197;-61
2022/08/25 06:19:53;;;;;;;12.77;8.73;;;18.60;94.70;;;;;;5079842;28;20201;-59
2022/08/25 06:22:20;;;;;;;10.47;8.77;;;18.60;94.70;;;;;;5084474;28;20194;-60
2022/08/25 06:24:46;;;;;;;9.83;8.50;;;18.70;94.80;;;;;;5092721;28;20192;-61
2022/08/25 06:27:12;;;;;;;14.93;9.93;;;18.70;94.80;;;;;;5095165;28;20232;-61
2022/08/25 06:29:37;;;;;;;13.43;8.80;;;18.80;94.90;;;;;;5084815;28;20185;-61
2022/08/25 06:32:04;;;;;;;10.43;8.67;;;18.80;94.60;;;;;;5096731;28;20213;-59
2022/08/25 06:34:29;;;;;;;11.13;8.77;;;18.80;94.70;;;;;;5087898;28;20188;-60
2022/08/25 06:36:55;;;;;;;11.87;9.00;;;18.80;94.80;;;;;;5080159;28;20204;-59
2022/08/25 06:39:23;;;;;;;10.00;8.30;;;18.90;94.90;;;;;;5054696;28;20192;-59
2022/08/25 06:41:53;;;;;;;10.03;9.03;;;19.00;94.90;;;;;;5093990;28;20184;-59
2022/08/25 06:44:20;;;;;;;13.83;9.63;;;19.00;94.90;;;;;;5100425;27;20195;-59
2022/08/25 06:46:46;;;;;;;13.73;10.63;;;19.10;95.00;;;;;;5093482;28;20211;-60
2022/08/25 06:49:11;;;;;;;10.60;9.23;;;19.10;95.10;;;;;;5086206;28;20192;-60
2022/08/25 06:51:38;;;;;;;12.17;8.97;;;19.20;95.10;;;;;;5093799;28;20188;-59
2022/08/25 06:54:05;;;;;;;10.17;8.87;;;19.20;95.10;;;;;;5078438;28;20188;-59
2022/08/25 06:56:31;;;;;;;9.60;8.60;;;19.20;95.10;;;;;;5090601;28;20193;-59
2022/08/25 06:58:57;;;;;;;11.67;8.40;;;19.20;95.00;;;;;;5071181;28;20185;-59
2022/08/25 07:01:25;;;;;;;11.80;9.70;;;19.30;95.00;;;;;;5061325;28;20253;-59
2022/08/25 07:03:56;;;;;;;10.93;9.33;;;19.30;95.10;;;;;;5076953;28;20189;-59
2022/08/25 07:06:22;;;;;;;9.43;8.53;;;19.30;95.10;;;;;;5093845;28;20180;-59
2022/08/25 07:08:48;;;;;;;10.30;9.20;;;19.30;95.10;;;;;;5114149;28;20184;-59
2022/08/25 07:11:15;;;;;;;11.20;9.10;;;19.30;95.10;;;;;;5076501;28;20185;-58
2022/08/25 07:13:41;;;;;;;10.00;8.67;;;19.40;95.10;;;;;;5107157;28;20234;-58
2022/08/25 07:16:06;;;;;;;15.63;9.87;;;19.40;95.10;;;;;;5113569;28;20207;-58
2022/08/25 07:18:33;;;;;;;10.40;9.30;;;19.40;95.20;;;;;;5072756;28;20215;-59
2022/08/25 07:20:59;;;;;;;10.23;9.17;;;19.50;95.20;;;;;;5068264;28;20196;-58
2022/08/25 07:23:26;;;;;;;10.10;8.87;;;19.50;95.20;;;;;;5058290;28;20219;-59
2022/08/25 07:25:52;;;;;;;11.83;10.10;;;19.50;95.10;;;;;;5095345;28;20239;-59
2022/08/25 07:28:19;;;;;;;10.00;8.83;;;19.50;95.10;;;;;;5081706;28;20286;-59
2022/08/25 07:30:45;;;;;;;11.20;9.43;;;19.50;95.10;;;;;;5087896;28;20237;-59
2022/08/25 07:33:11;;;;;;;13.00;10.47;;;19.50;95.10;;;;;;5074669;28;20193;-59
2022/08/25 07:35:37;;;;;;;10.83;9.20;;;19.60;95.20;;;;;;5079739;28;20250;-59
2022/08/25 07:38:05;;;;;;;10.33;9.37;;;19.70;95.30;;;;;;5077445;28;20245;-59
2022/08/25 07:40:33;;;;;;;14.97;10.83;;;19.70;95.30;;;;;;5094568;28;20218;-59
2022/08/25 07:43:07;;;;;;;12.83;10.83;;;19.80;95.40;;;;;;5120343;28;20188;-59
2022/08/25 07:45:34;;;;;;;12.23;10.47;;;19.80;95.50;;;;;;5118131;27;20225;-59
2022/08/25 07:48:07;;;;;;;13.17;11.40;;;19.90;95.50;;;;;;5095235;28;20303;-59
2022/08/25 07:50:37;;;;;;;14.07;10.93;;;20.00;95.60;;;;;;5100792;28;20271;-59
2022/08/25 07:53:04;;;;;;;12.97;10.87;;;20.00;95.60;;;;;;5101824;28;20188;-59
2022/08/25 07:55:30;;;;;;;14.63;10.47;;;20.00;95.50;;;;;;5101384;28;20196;-59
2022/08/25 07:57:58;;;;;;;15.03;10.57;;;20.10;95.50;;;;;;5075875;28;20258;-59
2022/08/25 08:00:27;;;;;;;13.07;9.80;;;20.10;95.40;;;;;;5089232;28;20193;-60
2022/08/25 08:02:52;;;;;;;11.70;10.50;;;20.10;95.50;;;;;;5076701;28;20201;-60
2022/08/25 08:05:18;;;;;;;12.13;10.93;;;20.10;95.30;;;;;;5078907;28;20285;-60
2022/08/25 08:07:44;;;;;;;14.47;10.80;;;20.10;95.20;;;;;;5080769;28;20293;-59
2022/08/25 08:10:12;;;;;;;12.60;11.00;;;20.10;95.00;;;;;;5059955;28;20259;-59
2022/08/25 08:12:38;;;;;;;13.37;10.33;;;20.10;95.00;;;;;;5092895;28;20233;-58
2022/08/25 08:15:05;;;;;;;13.43;10.60;;;20.10;95.10;;;;;;5092663;28;20192;-58
2022/08/25 08:17:31;;;;;;;11.63;10.53;;;20.10;95.10;;;;;;5105569;28;20215;-59
2022/08/25 08:19:58;;;;;;;14.40;10.93;;;20.20;95.10;;;;;;5067076;28;20200;-59
2022/08/25 08:22:23;;;;;;;12.77;11.47;;;20.20;95.10;;;;;;5101141;28;20191;-58
2022/08/25 08:24:49;;;;;;;13.47;10.70;;;20.20;95.10;;;;;;5085137;28;20283;-58
2022/08/25 08:27:15;;;;;;;13.83;11.10;;;20.20;95.20;;;;;;5086556;28;20232;-59
2022/08/25 08:29:41;;;;;;;14.13;12.13;;;20.20;95.10;;;;;;5092155;28;20184;-58
2022/08/25 08:32:12;;;;;;;16.27;11.80;;;20.20;95.10;;;;;;5105875;28;20206;-58
2022/08/25 08:34:39;;;;;;;16.33;12.33;;;20.20;95.20;;;;;;5115917;28;20184;-57
2022/08/25 08:37:06;;;;;;;12.30;11.00;;;20.20;95.20;;;;;;5081009;28;20197;-57
2022/08/25 08:39:32;;;;;;;13.77;11.60;;;20.20;95.00;;;;;;5094554;28;20191;-58
2022/08/25 08:42:16;;;;;;;13.03;11.83;;;20.20;95.10;;;;;;5064831;28;20198;-57
2022/08/25 08:44:44;;;;;;;16.33;12.30;;;20.20;95.20;;;;;;5083386;28;20676;-57
2022/08/25 08:47:49;;;;;;;14.97;12.20;;;20.20;95.20;;;;;;5097638;28;20287;-58
2022/08/25 08:50:52;;;;;;;16.13;12.87;;;20.20;95.10;;;;;;5099441;28;20192;-59
2022/08/25 08:53:33;;;;;;;18.50;12.80;;;20.20;94.90;;;;;;5087584;28;20211;-58
2022/08/25 08:56:08;;;;;;;15.57;12.60;;;20.30;94.90;;;;;;5099510;28;20241;-59
2022/08/25 08:58:51;;;;;;;15.83;12.83;;;20.40;94.80;;;;;;5098118;28;20213;-58
2022/08/25 09:01:31;;;;;;;12.77;11.07;;;20.40;94.80;;;;;;5078668;28;20271;-58
2022/08/25 09:04:09;;;;;;;19.43;11.87;;;20.50;95.00;;;;;;5081806;28;20196;-58
2022/08/25 09:06:42;;;;;;;14.40;12.53;;;20.50;92.20;;;;;;5117160;28;20207;-58
2022/08/25 09:09:11;;;;;;;18.73;11.63;;;20.50;93.20;;;;;;5090221;28;20196;-58
2022/08/25 09:11:53;;;;;;;16.30;13.43;;;20.50;92.10;;;;;;5074322;28;20184;-58
2022/08/25 09:14:35;;;;;;;19.30;12.77;;;20.60;93.10;;;;;;5095613;28;20203;-59
2022/08/25 09:17:15;;;;;;;15.10;12.60;;;20.60;92.80;;;;;;5102178;28;20289;-59
2022/08/25 09:20:03;;;;;;;16.27;12.07;;;20.60;92.70;;;;;;5092410;28;20188;-59
2022/08/25 09:22:50;;;;;;;16.80;12.40;;;20.70;92.90;;;;;;5092866;28;20201;-58
2022/08/25 09:25:29;;;;;;;16.03;11.97;;;20.70;92.80;;;;;;5110857;28;20187;-58
2022/08/25 09:27:54;;;;;;;15.97;13.33;;;20.70;93.00;;;;;;5084137;28;20212;-58
2022/08/25 09:30:21;;;;;;;16.40;12.40;;;20.70;93.30;;;;;;5104187;28;20192;-58
2022/08/25 09:32:53;;;;;;;14.63;11.90;;;20.80;92.80;;;;;;5108103;28;20161;-58
2022/08/25 09:35:24;;;;;;;14.83;12.80;;;20.70;92.80;;;;;;5103959;28;20177;-58
2022/08/25 09:38:02;;;;;;;17.33;12.27;;;20.80;92.70;;;;;;5080525;28;20197;-58
2022/08/25 09:40:30;;;;;;;13.90;12.43;;;20.80;91.20;;;;;;5111606;28;20316;-58
2022/08/25 09:42:58;;;;;;;19.07;13.07;;;20.80;91.50;;;;;;5116548;28;20191;-59
2022/08/25 09:46:08;;;;;;;16.97;11.37;;;20.80;92.00;;;;;;5095809;28;20191;-58
2022/08/25 09:48:46;;;;;;;15.47;12.40;;;20.80;91.70;;;;;;5112307;27;20204;-58
2022/08/25 09:51:41;;;;;;;14.57;12.57;;;20.90;91.60;;;;;;5098028;28;20221;-58
2022/08/25 09:54:14;;;;;;;15.77;11.67;;;20.90;92.10;;;;;;5093090;28;20181;-58
2022/08/25 09:56:57;;;;;;;16.97;12.27;;;20.90;92.30;;;;;;5078166;28;20283;-58
2022/08/25 09:59:27;;;;;;;14.30;12.80;;;20.90;91.60;;;;;;5113095;28;20180;-58
2022/08/25 10:01:59;;;;;;;21.03;13.17;;;21.00;92.10;;;;;;5106037;28;20199;-58
2022/08/25 10:04:37;;;;;;;13.17;11.43;;;21.00;92.60;;;;;;5096553;28;20181;-58
2022/08/25 10:07:19;;;;;;;16.00;11.97;;;21.00;91.40;;;;;;5099720;28;20210;-58
2022/08/25 10:09:52;;;;;;;20.40;11.13;;;21.10;90.90;;;;;;5080243;28;20190;-59
2022/08/25 10:12:27;;;;;;;18.43;12.57;;;21.10;91.70;;;;;;5083729;28;20193;-58
2022/08/25 10:14:53;;;;;;;18.60;11.93;;;21.20;91.00;;;;;;5092985;28;20192;-59
2022/08/25 10:17:30;;;;;;;13.23;10.83;;;21.10;91.40;;;;;;5068220;28;20221;-58
2022/08/25 10:20:18;;;;;;;13.13;11.57;;;21.20;90.80;;;;;;5077799;28;20282;-58
2022/08/25 10:22:45;;;;;;;15.20;11.73;;;21.20;90.60;;;;;;5110713;28;20188;-58
2022/08/25 10:25:13;;;;;;;12.57;10.50;;;21.20;90.60;;;;;;5097174;28;20204;-58
2022/08/25 10:27:39;;;;;;;17.73;11.67;;;21.30;91.20;;;;;;5076815;28;20233;-58
2022/08/25 10:30:11;;;;;;;12.67;11.33;;;21.30;91.20;;;;;;5076894;28;20268;-58
2022/08/25 10:33:08;;;;;;;14.57;10.70;;;21.30;91.40;;;;;;5094127;28;20188;-58
2022/08/25 10:36:02;;;;;;;15.33;10.37;;;21.30;91.40;;;;;;5086591;28;20192;-58
2022/08/25 10:38:40;;;;;;;14.97;9.73;;;21.40;90.20;;;;;;5072374;28;20197;-58
2022/08/25 10:41:31;;;;;;;13.33;10.93;;;21.40;91.00;;;;;;5067382;28;20276;-58
2022/08/25 10:47:40;;;;;;;14.67;10.60;;;21.50;91.20;;;;;;5093340;28;20208;-58
2022/08/25 10:50:38;;;;;;;11.30;10.07;;;21.70;91.30;;;;;;5094044;28;20196;-58
2022/08/25 10:53:24;;;;;;;15.87;10.80;;;21.70;89.60;;;;;;5065415;28;20181;-58
2022/08/25 10:56:07;;;;;;;14.20;11.87;;;21.80;89.30;;;;;;5073087;28;20219;-58
2022/08/25 10:58:45;;;;;;;13.97;10.87;;;22.00;89.90;;;;;;5075364;28;20195;-58
2022/08/25 11:01:56;;;;;;;11.37;9.40;;;22.10;89.80;;;;;;5094438;28;20211;-58
2022/08/25 11:04:39;;;;;;;14.00;9.70;;;22.20;87.80;;;;;;5051222;28;20250;-60
2022/08/25 11:07:09;;;;;;;12.27;9.87;;;22.20;86.90;;;;;;5094156;28;20204;-58
2022/08/25 11:09:43;;;;;;;13.17;9.77;;;22.20;85.50;;;;;;5081978;28;20189;-58
2022/08/25 11:12:14;;;;;;;12.87;9.83;;;22.20;85.50;;;;;;5091030;28;20200;-58
2022/08/25 11:14:52;;;;;;;12.47;7.57;;;22.30;83.50;;;;;;5090581;28;20180;-57
2022/08/25 11:17:54;;;;;;;10.27;9.20;;;22.30;80.80;;;;;;5068792;28;20192;-59
2022/08/25 11:20:27;;;;;;;12.73;9.90;;;22.40;84.30;;;;;;5053642;28;20196;-59
2022/08/25 11:23:20;;;;;;;11.67;9.37;;;22.50;84.60;;;;;;5086493;28;20315;-59
2022/08/25 11:25:50;;;;;;;14.23;8.67;;;22.70;79.20;;;;;;5090474;28;20237;-59
2022/08/25 11:28:25;;;;;;;12.37;8.60;;;22.80;79.50;;;;;;5091782;28;20208;-58
2022/08/25 11:30:54;;;;;;;10.43;9.33;;;23.00;76.80;;;;;;5088858;28;20188;-59
2022/08/25 11:33:24;;;;;;;13.40;9.43;;;23.10;78.70;;;;;;5076516;28;20188;-59
2022/08/25 11:35:57;;;;;;;13.17;8.37;;;23.10;79.10;;;;;;5087627;28;20181;-59
2022/08/25 11:38:35;;;;;;;10.40;7.97;;;23.30;77.60;;;;;;5071709;28;20192;-58
2022/08/25 11:41:25;;;;;;;11.93;8.77;;;23.50;77.20;;;;;;5074635;28;20181;-59
2022/08/25 11:44:22;;;;;;;11.47;9.87;;;23.50;78.90;;;;;;5088504;28;20184;-59
2022/08/25 11:46:59;;;;;;;13.97;8.67;;;23.60;80.20;;;;;;5068277;28;20224;-59
2022/08/25 11:49:51;;;;;;;15.27;8.23;;;23.80;78.80;;;;;;5084293;28;20189;-59
2022/08/25 11:52:32;;;;;;;10.97;8.13;;;24.00;77.00;;;;;;5084825;28;20188;-58
2022/08/25 11:55:13;;;;;;;10.70;8.00;;;24.20;76.80;;;;;;5074728;28;20193;-58
2022/08/25 11:57:40;;;;;;;11.37;8.43;;;24.10;73.70;;;;;;5075137;28;20205;-58
2022/08/25 12:00:28;;;;;;;9.90;7.43;;;24.00;75.30;;;;;;5058420;28;20184;-58
2022/08/25 12:02:53;;;;;;;9.17;8.23;;;24.20;74.60;;;;;;5086314;28;20192;-59
2022/08/25 12:05:20;;;;;;;11.90;8.50;;;24.20;76.50;;;;;;5094002;28;20192;-59
2022/08/25 12:07:50;;;;;;;14.37;7.77;;;24.50;73.60;;;;;;5083727;28;20212;-59
2022/08/25 12:10:18;;;;;;;8.13;7.33;;;24.50;74.60;;;;;;5082196;28;20185;-59
2022/08/25 12:13:02;;;;;;;9.83;7.43;;;24.60;74.70;;;;;;5093655;28;20181;-58
2022/08/25 12:15:30;;;;;;;11.87;7.40;;;24.70;75.40;;;;;;5085648;28;20182;-57
2022/08/25 12:18:16;;;;;;;9.17;7.73;;;24.80;75.00;;;;;;5076125;28;20182;-58
2022/08/25 12:20:56;;;;;;;8.37;7.47;;;24.80;73.30;;;;;;5084914;28;20189;-58
2022/08/25 12:23:35;;;;;;;10.63;8.00;;;24.80;74.30;;;;;;5078588;28;20192;-57
2022/08/25 12:26:32;;;;;;;12.87;8.43;;;24.80;75.60;;;;;;5081817;28;20223;-57
2022/08/25 12:29:09;;;;;;;8.33;7.17;;;24.80;74.00;;;;;;5060914;28;20196;-59
2022/08/25 12:31:41;;;;;;;13.67;8.30;;;25.10;74.50;;;;;;5096245;28;20188;-57
2022/08/25 12:34:24;;;;;;;12.00;7.60;;;25.60;73.50;;;;;;5095700;28;20184;-57
2022/08/25 12:36:57;;;;;;;11.97;8.17;;;26.10;70.20;;;;;;5087270;28;20192;-58
2022/08/25 12:39:30;;;;;;;13.63;8.07;;;26.60;69.30;;;;;;5095108;28;20276;-59
2022/08/25 12:42:02;;;;;;;10.60;7.23;;;27.00;69.10;;;;;;5099649;28;20192;-59
2022/08/25 12:44:39;;;;;;;8.63;7.17;;;27.30;64.70;;;;;;5099656;28;20218;-59
2022/08/25 12:47:13;;;;;;;11.03;7.80;;;27.30;66.30;;;;;;5115200;28;20208;-59
2022/08/25 12:49:38;;;;;;;11.83;7.97;;;27.10;61.60;;;;;;5094384;28;20188;-58
2022/08/25 12:52:36;;;;;;;9.37;7.53;;;27.00;64.90;;;;;;5089853;28;20267;-59
2022/08/25 12:55:05;;;;;;;13.20;7.70;;;27.50;64.20;;;;;;5086829;28;20233;-58
2022/08/25 12:57:41;;;;;;;13.33;7.13;;;27.80;64.20;;;;;;5112980;28;20180;-59
2022/08/25 13:00:23;;;;;;;8.40;6.70;;;28.00;63.10;;;;;;5090910;28;20184;-60
2022/08/25 13:03:26;;;;;;;12.10;6.77;;;28.40;60.00;;;;;;5104861;28;20192;-59